• Join FlightAware (Why Join?)
  • Login
  • US Flag 
 
10:51PM EST


 

Airport Tracker/Info


-or-


 

Live Flight TrackerFlight Track Log ✈ N87ER ✈ 26-Oct-2013 ✈ KBKL - KMBT

Flight Track Log - Related Links

Times and Time Zones

All times are in EDT time to prevent confusion due to time zone crossing. See the N87ER flight status page for this flight to view local times or setup timezone preferences in your user account.

Time Position Orientation Groundspeed Altitude Reporting Facility
EDT Latitude Longitude Course Direction KTS MPH feet Rate Location/Type
02:06PM 41.5147 -81.6944 338° Northwest 79 91 1,100  Level Cleveland Center
02:07PM 41.5367 -81.7064 338° Northwest 110 127 2,100 840 Climbing Cleveland Center
02:08PM 41.5381 -81.7053 31° Northeast 101 116 2,100 960 Level Cleveland Center
02:08PM 41.5436 -81.7214 295° West 59 68 3,100 960 Climbing Cleveland Center
02:09PM 41.5394 -81.7186 153° Southeast 82 94 3,100 660 Level Cleveland Center
02:10PM 41.5253 -81.7333 218° Southwest 69 79 3,900 780 Climbing Cleveland Center
02:11PM 41.5103 -81.7478 216° Southwest 66 76 4,700 720 Climbing Cleveland Center
02:11PM 41.4956 -81.7667 224° Southwest 79 91 5,300 660 Climbing Cleveland Center
02:12PM 41.4936 -81.7656 157° South 71 82 5,400 900 Climbing Cleveland Center
02:13PM 41.4758 -81.7836 217° Southwest 77 89 6,400 900 Climbing Cleveland Center
02:13PM 41.4631 -81.8006 225° Southwest 69 79 7,100 660 Climbing Cleveland Center
02:14PM 41.4608 -81.7997 164° South 73 84 7,100 480 Level Cleveland Center
02:15PM 41.4492 -81.8150 224° Southwest 65 75 7,600 540 Climbing Cleveland Center
02:15PM 41.4456 -81.8136 164° South 67 77 7,700 480 Climbing Cleveland Center
02:16PM 41.4350 -81.8294 228° Southwest 66 76 8,100 360 Climbing Cleveland Center
02:16PM 41.4314 -81.8297 183° South 66 76 8,100  Level Cleveland Center
02:17PM 41.4167 -81.8489 224° Southwest 80 92 8,100  Level Cleveland Center
02:17PM 41.4092 -81.8539 207° Southwest 86 99 8,100  Level Cleveland Center
02:18PM 41.3911 -81.8725 218° Southwest 119 137 8,100  Level Cleveland Center
02:18PM 41.3842 -81.8781 211° Southwest 105 121 8,100  Level Cleveland Center
02:19PM 41.3658 -81.8964 217° Southwest 111 128 8,100  Level Cleveland Center
02:19PM 41.3589 -81.8992 197° South 108 124 8,100  Level Cleveland Center
02:20PM 41.3431 -81.9175 221° Southwest 103 119 8,100  Level Cleveland Center
02:20PM 41.3347 -81.9208 197° South 105 121 8,100  Level Cleveland Center
02:21PM 41.3178 -81.9386 218° Southwest 105 121 8,100  Level Cleveland Center
02:21PM 41.3108 -81.9414 197° South 103 119 8,100  Level Cleveland Center
02:22PM 41.2950 -81.9597 221° Southwest 103 119 8,100  Level Cleveland Center
02:22PM 41.2875 -81.9653 209° Southwest 103 119 8,100  Level Cleveland Center
02:23PM 41.2694 -81.9836 217° Southwest 106 122 8,100  Level Cleveland Center
02:23PM 41.2586 -81.9897 203° Southwest 105 121 8,100  Level Cleveland Center
02:24PM 41.2444 -82.0044 218° Southwest 106 122 8,100  Level Cleveland Center
02:24PM 41.2353 -82.0128 214° Southwest 103 119 8,100  Level Cleveland Center
02:25PM 41.2119 -82.0356 216° Southwest 104 120 8,100  Level Cleveland Center
02:26PM 41.1875 -82.0558 212° Southwest 102 117 8,100  Level Cleveland Center
02:27PM 41.1597 -82.0756 208° Southwest 110 127 8,100  Level Cleveland Center
02:28PM 41.1344 -82.0997 216° Southwest 112 129 8,100  Level Cleveland Center
02:29PM 41.1078 -82.1242 215° Southwest 115 132 8,100  Level Cleveland Center
02:30PM 41.0803 -82.1467 212° Southwest 115 132 8,100  Level Cleveland Center
02:31PM 41.0497 -82.1750 215° Southwest 114 131 8,100  Level Cleveland Center
02:32PM 41.0211 -82.1994 213° Southwest 119 137 8,100  Level Cleveland Center
02:33PM 40.9942 -82.2244 215° Southwest 119 137 8,100  Level Cleveland Center
02:34PM 40.9667 -82.2486 214° Southwest 117 135 8,100  Level Cleveland Center
02:35PM 40.9400 -82.2689 210° Southwest 112 129 8,100  Level Cleveland Center
02:36PM 40.9156 -82.2922 216° Southwest 108 124 8,100  Level Cleveland Center
02:37PM 40.8900 -82.3164 216° Southwest 112 129 8,100  Level Cleveland Center
02:38PM 40.8617 -82.3378 210° Southwest 116 133 8,100  Level Cleveland Center
02:39PM 40.8358 -82.3606 214° Southwest 112 129 8,100  Level Cleveland Center
02:41PM 40.8058 -82.3897 216° Southwest 113 130 8,100  Level Cleveland Center
02:42PM 40.7783 -82.4119 211° Southwest 114 131 8,100  Level Cleveland Center
02:43PM 40.7564 -82.4331 216° Southwest 115 132 8,200  Climbing Indianapolis Center
02:44PM 40.7264 -82.4614 216° Southwest 114 131 8,200  Level Indianapolis Center
02:45PM 40.6981 -82.4842 211° Southwest 117 135 8,200  Level Indianapolis Center
02:46PM 40.6728 -82.5067 214° Southwest 111 128 8,200  Level Indianapolis Center
02:47PM 40.6486 -82.5297 216° Southwest 107 123 8,200  Level Indianapolis Center
02:48PM 40.6222 -82.5525 213° Southwest 110 127 8,200  Level Indianapolis Center
02:49PM 40.5967 -82.5750 214° Southwest 110 127 8,200  Level Indianapolis Center
02:50PM 40.5714 -82.5983 215° Southwest 110 127 8,200 -60 Level Indianapolis Center
02:51PM 40.5436 -82.6219 213° Southwest 115 132 8,100 -60 Descending Indianapolis Center
02:52PM 40.5164 -82.6439 212° Southwest 114 131 8,100  Level Indianapolis Center
02:53PM 40.4894 -82.6675 214° Southwest 115 132 8,100 -60 Level Indianapolis Center
02:54PM 40.4631 -82.6956 219° Southwest 117 135 8,000  Descending Indianapolis Center
02:54PM 40.4581 -82.6958 182° South 116 133 8,100  Climbing Indianapolis Center
02:55PM 40.4381 -82.7161 218° Southwest 120 138 8,000  Descending Indianapolis Center
02:55PM 40.4297 -82.7194 197° South 119 137 8,100  Climbing Indianapolis Center
02:56PM 40.4108 -82.7394 219° Southwest 118 136 8,000  Descending Indianapolis Center
02:56PM 40.4036 -82.7450 210° Southwest 116 133 8,100  Climbing Indianapolis Center
02:57PM 40.3853 -82.7656 221° Southwest 113 130 8,000  Descending Indianapolis Center
02:57PM 40.3781 -82.7703 206° Southwest 115 132 8,100  Climbing Indianapolis Center
02:58PM 40.3556 -82.7911 215° Southwest 118 136 8,000  Descending Indianapolis Center
02:58PM 40.3489 -82.7928 191° South 119 137 8,100  Climbing Indianapolis Center
02:59PM 40.3286 -82.8114 215° Southwest 123 142 8,000 -120 Descending Indianapolis Center
02:59PM 40.3189 -82.8164 201° Southwest 122 140 8,000  Level Indianapolis Center
03:00PM 40.3011 -82.8344 218° Southwest 121 139 8,000  Level Indianapolis Center
03:00PM 40.2903 -82.8392 198° South 121 139 8,000  Level Indianapolis Center
03:01PM 40.2714 -82.8600 220° Southwest 120 138 8,000  Level Indianapolis Center
03:01PM 40.2631 -82.8656 207° Southwest 121 139 8,000  Level Indianapolis Center
03:01PM 40.2464 -82.8806 214° Southwest 121 139 8,000  Level Indianapolis Center
03:02PM 40.2358 -82.8889 211° Southwest 119 137 8,000  Level Indianapolis Center
03:03PM 40.2189 -82.9064 218° Southwest 120 138 8,000  Level Indianapolis Center
03:03PM 40.2075 -82.9139 207° Southwest 122 140 8,000  Level Indianapolis Center
03:04PM 40.1894 -82.9289 212° Southwest 122 140 8,000  Level Indianapolis Center
03:04PM 40.1733 -82.9436 215° Southwest 123 142 8,000  Level Indianapolis Center
03:05PM 40.1547 -82.9617 217° Southwest 123 142 8,000  Level Indianapolis Center
03:05PM 40.1450 -82.9686 209° Southwest 123 142 8,000  Level Indianapolis Center
03:06PM 40.1275 -82.9819 210° Southwest 125 144 8,000  Level Indianapolis Center
03:06PM 40.1156 -82.9942 218° Southwest 127 146 8,000  Level Indianapolis Center
03:07PM 40.0933 -83.0119 211° Southwest 125 144 8,000  Level Indianapolis Center
03:07PM 40.0867 -83.0186 217° Southwest 125 144 8,000  Level Indianapolis Center
03:08PM 40.0703 -83.0331 214° Southwest 122 140 8,000  Level Indianapolis Center
03:08PM 40.0589 -83.0433 215° Southwest 122 140 8,000  Level Indianapolis Center
03:09PM 40.0406 -83.0583 212° Southwest 124 143 8,000  Level Indianapolis Center
03:09PM 40.0292 -83.0672 211° Southwest 125 144 8,000  Level Indianapolis Center
03:10PM 40.0108 -83.0833 214° Southwest 127 146 8,000  Level Indianapolis Center
03:10PM 39.9992 -83.0925 211° Southwest 128 147 8,000  Level Indianapolis Center
03:11PM 39.9789 -83.1083 211° Southwest 130 150 8,000  Level Indianapolis Center
03:11PM 39.9625 -83.1236 216° Southwest 130 150 8,000  Level Indianapolis Center
03:12PM 39.9514 -83.1339 215° Southwest 127 146 8,000  Level Indianapolis Center
03:12PM 39.9328 -83.1494 213° Southwest 129 148 8,000  Level Indianapolis Center
03:13PM 39.9217 -83.1589 213° Southwest 130 150 8,000  Level Indianapolis Center
03:13PM 39.9022 -83.1750 212° Southwest 131 151 8,000  Level Indianapolis Center
03:14PM 39.8894 -83.1864 214° Southwest 128 147 8,000  Level Indianapolis Center
03:14PM 39.8725 -83.2014 214° Southwest 129 148 8,000  Level Indianapolis Center
03:15PM 39.8550 -83.2164 213° Southwest 130 150 8,000  Level Indianapolis Center
03:15PM 39.8419 -83.2267 211° Southwest 129 148 8,000  Level Indianapolis Center
03:16PM 39.8253 -83.2414 214° Southwest 132 152 8,000  Level Indianapolis Center
03:16PM 39.8117 -83.2531 213° Southwest 131 151 8,000  Level Indianapolis Center
03:17PM 39.7956 -83.2664 212° Southwest 131 151 8,000  Level Indianapolis Center
03:17PM 39.7806 -83.2783 211° Southwest 131 151 8,000  Level Indianapolis Center
03:18PM 39.7589 -83.2958 212° Southwest 128 147 8,000  Level Indianapolis Center
03:19PM 39.7506 -83.3039 217° Southwest 129 148 8,000 -120 Level Indianapolis Center
03:19PM 39.7314 -83.3214 215° Southwest 127 146 7,900  Descending Indianapolis Center
03:20PM 39.7150 -83.3344 212° Southwest 127 146 8,000 60 Climbing Indianapolis Center
03:20PM 39.7014 -83.3464 214° Southwest 127 146 8,000  Level Indianapolis Center
03:21PM 39.6844 -83.3597 211° Southwest 129 148 8,000  Level Indianapolis Center
03:21PM 39.6694 -83.3736 215° Southwest 131 151 8,000  Level Indianapolis Center
03:22PM 39.6542 -83.3869 214° Southwest 131 151 8,000  Level Indianapolis Center
03:22PM 39.6392 -83.4014 217° Southwest 132 152 8,000  Level Indianapolis Center
03:23PM 39.6244 -83.4136 213° Southwest 130 150 8,000  Level Indianapolis Center
03:23PM 39.6072 -83.4286 214° Southwest 132 152 8,000  Level Indianapolis Center
03:24PM 39.5931 -83.4403 212° Southwest 132 152 8,000  Level Indianapolis Center
03:24PM 39.5753 -83.4531 209° Southwest 134 154 8,000  Level Indianapolis Center
03:25PM 39.5614 -83.4647 213° Southwest 132 152 8,000  Level Indianapolis Center
03:25PM 39.5433 -83.4778 209° Southwest 132 152 8,000  Level Indianapolis Center
03:26PM 39.5297 -83.4900 215° Southwest 133 153 8,000  Level Indianapolis Center
03:26PM 39.5133 -83.5053 216° Southwest 130 150 8,000  Level Indianapolis Center
03:27PM 39.4925 -83.5200 209° Southwest 131 151 8,000  Level Indianapolis Center
03:27PM 39.4814 -83.5297 214° Southwest 132 152 8,000  Level Indianapolis Center
03:28PM 39.4617 -83.5458 212° Southwest 132 152 8,000  Level Indianapolis Center
03:28PM 39.4539 -83.5522 212° Southwest 130 150 8,000 60 Level Indianapolis Center
03:29PM 39.4322 -83.5711 214° Southwest 128 147 8,100  Climbing Indianapolis Center
03:29PM 39.4194 -83.5817 213° Southwest 130 150 8,000  Descending Indianapolis Center
03:30PM 39.4017 -83.5969 214° Southwest 130 150 8,100  Climbing Indianapolis Center
03:30PM 39.3872 -83.6089 213° Southwest 132 152 8,000  Descending Indianapolis Center
03:31PM 39.3706 -83.6228 213° Southwest 132 152 8,100  Climbing Indianapolis Center
03:31PM 39.3594 -83.6339 218° Southwest 135 155 8,000  Descending Indianapolis Center
03:32PM 39.3389 -83.6489 209° Southwest 134 154 8,100  Climbing Indianapolis Center
03:33PM 39.3075 -83.6753 213° Southwest 134 154 8,100  Level Indianapolis Center
03:34PM 39.2706 -83.7075 214° Southwest 133 153 8,100 -60 Level Indianapolis Center
03:35PM 39.2397 -83.7336 213° Southwest 133 153 8,000 -60 Descending Indianapolis Center
03:36PM 39.2072 -83.7594 212° Southwest 135 155 8,000  Level Indianapolis Center
03:37PM 39.1756 -83.7833 210° Southwest 134 154 8,100  Climbing Indianapolis Center
03:38PM 39.1461 -83.8103 215° Southwest 131 151 8,100  Level Indianapolis Center
03:39PM 39.1139 -83.8356 211° Southwest 135 155 8,100  Level Indianapolis Center
03:40PM 39.0825 -83.8619 213° Southwest 134 154 8,100  Level Indianapolis Center
03:41PM 39.0444 -83.8928 212° Southwest 135 155 8,100  Level Indianapolis Center
03:42PM 39.0142 -83.9194 214° Southwest 134 154 8,100  Level Indianapolis Center
03:43PM 38.9839 -83.9447 213° Southwest 131 151 8,100  Level Indianapolis Center
03:44PM 38.9511 -83.9694 210° Southwest 135 155 8,100  Level Indianapolis Center
03:45PM 38.9192 -83.9958 213° Southwest 136 157 8,100  Level Indianapolis Center
03:46PM 38.8858 -84.0219 211° Southwest 137 158 8,200  Climbing Indianapolis Center
03:47PM 38.8550 -84.0483 214° Southwest 136 157 8,100 -60 Descending Indianapolis Center
03:48PM 38.8183 -84.0803 214° Southwest 134 154 8,100  Level Indianapolis Center
03:49PM 38.7869 -84.1053 212° Southwest 133 153 8,100  Level Indianapolis Center
03:50PM 38.7550 -84.1319 213° Southwest 135 155 8,200  Climbing Indianapolis Center
03:51PM 38.7239 -84.1603 215° Southwest 136 157 8,100 -60 Descending Indianapolis Center
03:52PM 38.6911 -84.1847 210° Southwest 137 158 8,100  Level Indianapolis Center
03:54PM 38.6594 -84.2106 213° Southwest 135 155 8,100  Level Indianapolis Center
03:55PM 38.6228 -84.2417 214° Southwest 134 154 8,100  Level Indianapolis Center
03:56PM 38.5931 -84.2658 212° Southwest 129 148 8,100 -60 Level Indianapolis Center
03:57PM 38.5614 -84.2922 213° Southwest 132 152 8,000 -60 Descending Indianapolis Center
03:58PM 38.5286 -84.3158 209° Southwest 136 157 8,000  Level Indianapolis Center
03:59PM 38.4967 -84.3397 210° Southwest 133 153 8,000  Level Indianapolis Center
04:00PM 38.4678 -84.3625 212° Southwest 126 145 8,000  Level Indianapolis Center
04:01PM 38.4358 -84.3883 212° Southwest 132 152 8,000  Level Indianapolis Center
04:02PM 38.3986 -84.4175 212° Southwest 134 154 8,000  Level Indianapolis Center
04:03PM 38.3669 -84.4436 213° Southwest 135 155 8,000  Level Indianapolis Center
04:04PM 38.3361 -84.4686 212° Southwest 130 150 8,000  Level Indianapolis Center
04:05PM 38.3053 -84.4944 213° Southwest 134 154 8,000  Level Indianapolis Center
04:06PM 38.2747 -84.5181 211° Southwest 131 151 8,000  Level Indianapolis Center
04:07PM 38.2447 -84.5414 211° Southwest 129 148 8,000  Level Indianapolis Center
04:08PM 38.2142 -84.5669 213° Southwest 129 148 8,000  Level Indianapolis Center
04:09PM 38.1778 -84.5950 211° Southwest 130 150 8,000  Level Indianapolis Center
04:10PM 38.1475 -84.6206 214° Southwest 130 150 8,000  Level Indianapolis Center
04:11PM 38.1169 -84.6458 213° Southwest 130 150 8,000  Level Indianapolis Center
04:12PM 38.0853 -84.6694 210° Southwest 131 151 8,000  Level Indianapolis Center
04:13PM 38.0531 -84.6939 211° Southwest 132 152 8,000  Level Indianapolis Center
04:14PM 38.0219 -84.7203 214° Southwest 133 153 8,000  Level Indianapolis Center
04:15PM 37.9908 -84.7456 213° Southwest 133 153 8,100  Climbing Indianapolis Center
04:16PM 37.9600 -84.7697 212° Southwest 133 153 8,000 -60 Descending Indianapolis Center
04:17PM 37.9228 -84.7981 211° Southwest 134 154 8,000  Level Indianapolis Center
04:18PM 37.8931 -84.8222 213° Southwest 130 150 8,000  Level Indianapolis Center
04:19PM 37.8597 -84.8475 211° Southwest 135 155 8,000  Level Indianapolis Center
04:20PM 37.8275 -84.8711 210° Southwest 135 155 8,000  Level Indianapolis Center
04:21PM 37.7972 -84.8953 212° Southwest 132 152 8,000  Level Indianapolis Center
04:22PM 37.7636 -84.9231 213° Southwest 138 159 8,000  Level Indianapolis Center
04:23PM 37.7347 -84.9467 213° Southwest 130 150 8,000  Level Indianapolis Center
04:24PM 37.7006 -84.9722 211° Southwest 137 158 8,000  Level Indianapolis Center
04:25PM 37.6694 -84.9967 212° Southwest 135 155 8,000  Level Indianapolis Center
04:26PM 37.6331 -85.0264 213° Southwest 133 153 8,000  Level Indianapolis Center
04:27PM 37.6017 -85.0517 213° Southwest 134 154 8,000  Level Indianapolis Center
04:28PM 37.5703 -85.0775 213° Southwest 134 154 8,100  Climbing Indianapolis Center
04:29PM 37.5378 -85.1019 211° Southwest 135 155 8,100  Level Indianapolis Center
04:30PM 37.5053 -85.1264 211° Southwest 136 157 8,100  Level Indianapolis Center
04:31PM 37.4739 -85.1519 213° Southwest 134 154 8,100  Level Indianapolis Center
04:32PM 37.4414 -85.1772 212° Southwest 136 157 8,100 -60 Level Indianapolis Center
04:33PM 37.4097 -85.2011 211° Southwest 134 154 8,000 -60 Descending Indianapolis Center
04:34PM 37.3706 -85.2322 212° Southwest 139 160 8,000  Level Indianapolis Center
04:35PM 37.3389 -85.2569 212° Southwest 137 158 8,000  Level Indianapolis Center
04:37PM 37.3069 -85.2811 211° Southwest 134 154 8,000  Level Indianapolis Center
04:38PM 37.2750 -85.3072 213° Southwest 135 155 8,000  Level Indianapolis Center
04:39PM 37.2419 -85.3322 211° Southwest 138 159 8,000  Level Indianapolis Center
04:40PM 37.2106 -85.3581 213° Southwest 137 158 8,000 -60 Level Indianapolis Center
04:41PM 37.1761 -85.3844 211° Southwest 141 162 7,900  Descending Indianapolis Center
04:42PM 37.1408 -85.4108 211° Southwest 145 167 8,000  Climbing Indianapolis Center
04:43PM 37.1050 -85.4394 212° Southwest 145 167 8,000 -60 Level Indianapolis Center
04:44PM 37.0681 -85.4675 211° Southwest 141 162 7,900  Descending Indianapolis Center
04:45PM 37.0350 -85.4933 212° Southwest 140 161 8,000  Climbing Indianapolis Center
04:46PM 37.0036 -85.5189 213° Southwest 138 159 8,000 -60 Level Indianapolis Center
04:47PM 36.9692 -85.5439 210° Southwest 139 160 7,900 -60 Descending Indianapolis Center
04:48PM 36.9347 -85.5703 211° Southwest 143 165 7,900  Level Indianapolis Center
04:49PM 36.9000 -85.5967 211° Southwest 144 166 7,900  Level Indianapolis Center
04:50PM 36.8664 -85.6239 213° Southwest 143 165 7,900  Level Indianapolis Center
04:51PM 36.8314 -85.6494 210° Southwest 144 166 7,900 -240 Level Indianapolis Center
04:52PM 36.7967 -85.6789 214° Southwest 147 169 7,500 -420 Descending Indianapolis Center
04:53PM 36.7561 -85.7081 210° Southwest 158 182 7,100 -540 Descending Indianapolis Center
04:54PM 36.7175 -85.7361 210° Southwest 160 184 6,500 -600 Descending Indianapolis Center
04:55PM 36.6808 -85.7644 212° Southwest 157 181 6,000 -240 Descending Indianapolis Center
04:56PM 36.6436 -85.7933 212° Southwest 139 160 6,100  Climbing Indianapolis Center
04:57PM 36.6156 -85.8178 215° Southwest 128 147 6,100  Level Indianapolis Center
04:59PM 36.5667 -85.8500 208° Southwest 128 147 6,100  Level Nashville TRACON
05:00PM 36.5333 -85.8833 219° Southwest 128 147 6,100  Level Nashville TRACON
05:01PM 36.5000 -85.9000 202° Southwest 125 144 6,100  Level Nashville TRACON
05:02PM 36.4667 -85.9167 202° Southwest 127 146 6,100  Level Nashville TRACON
05:03PM 36.4500 -85.9500 238° Southwest 128 147 6,100  Level Nashville TRACON
05:04PM 36.4167 -85.9667 202° Southwest 134 154 6,100  Level Nashville TRACON
05:05PM 36.3739 -86.0011 213° Southwest 137 158 6,100  Level Memphis Center
05:06PM 36.3475 -86.0206 211° Southwest 137 158 6,100  Level Memphis Center
05:07PM 36.3169 -86.0453 213° Southwest 137 158 6,100  Level Memphis Center
05:08PM 36.2844 -86.0703 212° Southwest 137 158 6,100  Level Memphis Center
05:09PM 36.2522 -86.0950 212° Southwest 137 158 6,100  Level Memphis Center
05:10PM 36.2217 -86.1197 213° Southwest 137 158 6,100 -240 Level Memphis Center
05:11PM 36.1869 -86.1447 210° Southwest 137 158 5,700 -480 Descending Memphis Center
05:13PM 36.1167 -86.2000 212° Southwest 155 178 4,700 -540 Descending Nashville TRACON